| time (UTC) | temp C | wind direction | speed KPH | gust KPH | rain 1hr cm | rain 24hr cm | rain mn cm | humidity % | barometer mb |
| 20260906052657 | 20 | 223 | 0.0 | 1.6 | 0.00 | 0.10 | 0.10 | 75 | 1017.2 |
| 20260906045656 | 21 | 175 | 0.0 | 3.2 | 0.00 | 0.10 | 0.10 | 75 | 1017.0 |
| 20260906042655 | 20 | 133 | 0.0 | 1.6 | 0.00 | 0.10 | 0.10 | 75 | 1017.4 |
| 20260906035654 | 21 | 174 | 0.0 | 0.0 | 0.00 | 0.10 | 0.10 | 75 | 1017.5 |
| 20260906032653 | 21 | 178 | 0.0 | 3.2 | 0.00 | 0.10 | 0.10 | 75 | 1017.2 |
| 20260906025652 | 21 | 175 | 0.0 | 0.0 | 0.00 | 0.10 | 0.10 | 75 | 1017.2 |
| 20260906022651 | 21 | 175 | 0.0 | 0.0 | 0.00 | 0.10 | 0.10 | 75 | 1016.9 |
| 20260906015650 | 21 | 175 | 0.0 | 0.0 | 0.00 | 0.10 | 0.10 | 75 | 1016.6 |
| 20260906012649 | 21 | 177 | 0.0 | 0.0 | 0.00 | 0.10 | 0.10 | 75 | 1016.5 |
| 20260906005648 | 21 | 133 | 0.0 | 0.0 | 0.00 | 0.10 | 0.10 | 75 | 1016.4 |
| 20260906002647 | 22 | 223 | 0.0 | 0.0 | 0.00 | 0.10 | 0.10 | 75 | 1016.4 |
| 20260905235646 | 23 | 175 | 0.0 | 0.0 | 0.00 | 0.10 | 0.10 | 75 | 1016.5 |
| 20260905232645 | 23 | 175 | 0.0 | 0.0 | 0.00 | 0.10 | 0.10 | 75 | 1016.5 |
| 20260905225644 | 23 | 174 | 0.0 | 1.6 | 0.00 | 0.10 | 0.10 | 75 | 1016.3 |
| 20260905222643 | 23 | 175 | 0.0 | 0.0 | 0.00 | 0.10 | 0.10 | 75 | 1016.4 |
| 20260905215642 | 25 | 286 | 3.2 | 4.8 | 0.00 | 0.10 | 0.10 | 75 | 1017.1 |
| 20260905205640 | 32 | 92 | 1.6 | 4.8 | 0.00 | 0.10 | 0.10 | 75 | 1016.8 |
| 20260905202639 | 33 | 127 | 1.6 | 4.8 | 0.00 | 0.10 | 0.10 | 75 | 1016.4 |
| 20260905195638 | 34 | 9 | 6.4 | 6.4 | 0.00 | 0.10 | 0.10 | 75 | 1017.0 |
| 20260905192637 | 33 | 355 | 6.4 | 8.0 | 0.00 | 0.10 | 0.10 | 75 | 1017.2 |
| 20260905185636 | 33 | 316 | 1.6 | 6.4 | 0.00 | 0.10 | 0.10 | 75 | 1017.5 |
| 20260905182635 | 33 | 347 | 4.8 | 9.7 | 0.00 | 0.10 | 0.10 | 75 | 1017.8 |
| 20260905175634 | 33 | 4 | 4.8 | 6.4 | 0.00 | 0.10 | 0.10 | 75 | 1018.1 |
| 20260905172633 | 32 | 315 | 3.2 | 6.4 | 0.00 | 0.10 | 0.10 | 75 | 1018.4 |
| 20260905165632 | 32 | 174 | 1.6 | 6.4 | 0.00 | 0.10 | 0.10 | 75 | 1018.5 |
| 20260905162631 | 31 | 289 | 4.8 | 6.4 | 0.00 | 0.10 | 0.10 | 75 | 1018.9 |
| 20260905155630 | 30 | 172 | 1.6 | 3.2 | 0.00 | 0.10 | 0.10 | 75 | 1019.0 |
| 20260905152629 | 30 | 175 | 3.2 | 4.8 | 0.00 | 0.10 | 0.10 | 75 | 1019.2 |
| 20260905145628 | 30 | 315 | 3.2 | 4.8 | 0.00 | 0.10 | 0.10 | 75 | 1019.3 |
| 20260905142627 | 27 | 360 | 1.6 | 3.2 | 0.00 | 0.10 | 0.10 | 75 | 1019.3 |
| 20260905135626 | 25 | 172 | 0.0 | 0.0 | 0.00 | 0.10 | 0.10 | 75 | 1019.4 |
| 20260905132625 | 23 | 172 | 0.0 | 0.0 | 0.00 | 0.10 | 0.10 | 75 | 1019.4 |
| 20260905125624 | 21 | 174 | 0.0 | 0.0 | 0.00 | 0.10 | 0.10 | 75 | 1019.6 |
| 20260905122623 | 19 | 175 | 0.0 | 0.0 | 0.00 | 0.10 | 0.10 | 75 | 1019.0 |
| 20260905115622 | 19 | 175 | 0.0 | 0.0 | 0.00 | 0.10 | 0.10 | 75 | 1019.0 |
| 20260905112621 | 19 | 175 | 0.0 | 0.0 | 0.00 | 0.10 | 0.10 | 75 | 1018.9 |
| 20260905105620 | 19 | 175 | 0.0 | 0.0 | 0.00 | 0.10 | 0.10 | 75 | 1018.6 |
| 20260905102619 | 19 | 175 | 0.0 | 0.0 | 0.00 | 0.10 | 0.10 | 75 | 1018.4 |
| 20260905095618 | 19 | 175 | 0.0 | 0.0 | 0.00 | 0.10 | 0.10 | 75 | 1018.3 |
| 20260905092617 | 19 | 175 | 0.0 | 0.0 | 0.00 | 0.10 | 0.10 | 75 | 1018.2 |
| 20260905085616 | 20 | 223 | 0.0 | 0.0 | 0.00 | 0.10 | 0.10 | 75 | 1018.0 |
| 20260905082615 | 20 | 174 | 0.0 | 0.0 | 0.00 | 0.10 | 0.10 | 75 | 1018.1 |
| 20260905075614 | 20 | 223 | 0.0 | 0.0 | 0.00 | 0.10 | 0.10 | 75 | 1018.1 |
| 20260905072613 | 20 | 223 | 0.0 | 0.0 | 0.00 | 0.10 | 0.10 | 75 | 1018.1 |
| 20260905065612 | 20 | 223 | 0.0 | 0.0 | 0.00 | 0.10 | 0.10 | 75 | 1018.3 |
| 20260905062611 | 21 | 175 | 0.0 | 0.0 | 0.00 | 0.10 | 0.10 | 75 | 1018.4 |
| 20260905055610 | 21 | 174 | 0.0 | 0.0 | 0.00 | 0.10 | 0.10 | 75 | 1018.5 |